Time;durP1;ratioP1;P1;durP2;ratioP2;P2;SDS_P1;SDS_P2;PMS_P1;PMS_P2;Temp;Humidity;BMP_temperature;BMP_pressure;BME280_temperature;BME280_humidity;BME280_pressure;Samples;Min_cycle;Max_cycle;Signal;HPM_P1;HPM_P2
2023/01/30 00:00:25;;;;;;;19.73;17.90;;;0.60;99.90;;;;;;4995357;28;20551;-47
2023/01/30 00:02:50;;;;;;;18.60;16.70;;;0.70;99.90;;;;;;4993602;28;20209;-50
2023/01/30 00:05:16;;;;;;;19.07;17.27;;;0.70;99.90;;;;;;4990971;28;20194;-45
2023/01/30 00:07:42;;;;;;;18.80;17.00;;;0.70;99.90;;;;;;4989997;28;20193;-46
2023/01/30 00:10:08;;;;;;;19.23;17.57;;;0.70;99.90;;;;;;4993689;28;20182;-46
2023/01/30 00:12:33;;;;;;;18.15;16.50;;;0.70;99.90;;;;;;4994376;28;20209;-51
2023/01/30 00:14:59;;;;;;;18.83;17.03;;;0.70;99.90;;;;;;5000520;28;20266;-50
2023/01/30 00:17:25;;;;;;;17.53;16.03;;;0.70;99.90;;;;;;4991035;28;20572;-45
2023/01/30 00:19:50;;;;;;;18.97;17.13;;;0.80;99.90;;;;;;4997909;28;20208;-44
2023/01/30 00:22:16;;;;;;;18.37;16.67;;;0.90;99.90;;;;;;5001525;28;20185;-48
2023/01/30 00:24:41;;;;;;;18.43;16.77;;;0.90;99.90;;;;;;4991256;28;20204;-49
2023/01/30 00:27:07;;;;;;;18.47;16.90;;;0.90;99.90;;;;;;4990994;28;20177;-45
2023/01/30 00:29:33;;;;;;;17.97;16.30;;;0.90;99.90;;;;;;5001349;28;20856;-47
2023/01/30 00:31:58;;;;;;;18.77;17.17;;;0.90;99.90;;;;;;4993380;28;20237;-49
2023/01/30 00:34:24;;;;;;;18.50;16.80;;;1.00;99.90;;;;;;4990606;28;20230;-50
2023/01/30 00:36:49;;;;;;;18.87;17.27;;;1.10;99.90;;;;;;4994584;28;20182;-49
2023/01/30 00:39:15;;;;;;;18.10;16.70;;;1.00;99.90;;;;;;4972374;28;20577;-46
2023/01/30 00:47:09;;;;;;;18.63;17.02;;;1.00;99.90;;;;;;4990442;28;20189;-47
2023/01/30 00:49:36;;;;;;;18.83;17.07;;;1.10;99.90;;;;;;5006112;28;20176;-48
2023/01/30 00:52:03;;;;;;;18.58;16.98;;;1.10;99.90;;;;;;5001242;28;20431;-46
2023/01/30 00:54:29;;;;;;;18.63;16.92;;;1.00;99.90;;;;;;4994322;28;20193;-45
2023/01/30 00:56:54;;;;;;;19.25;17.55;;;1.00;99.90;;;;;;4991315;28;20302;-45
2023/01/30 00:59:20;;;;;;;17.80;16.30;;;1.00;99.90;;;;;;5005566;28;20263;-48
2023/01/30 01:01:46;;;;;;;18.23;16.53;;;1.10;99.90;;;;;;4989786;28;20209;-46
2023/01/30 01:04:12;;;;;;;18.67;17.10;;;1.00;99.90;;;;;;4989605;28;20166;-46
2023/01/30 01:06:38;;;;;;;18.08;16.58;;;0.90;99.90;;;;;;4989796;28;20188;-46
2023/01/30 01:09:05;;;;;;;18.05;16.55;;;1.00;99.90;;;;;;4989585;28;20173;-45
2023/01/30 01:11:30;;;;;;;17.70;16.05;;;0.90;99.90;;;;;;5003202;28;20191;-46
2023/01/30 01:13:58;;;;;;;17.87;16.27;;;0.90;99.90;;;;;;5006804;28;20189;-46
2023/01/30 01:16:25;;;;;;;18.05;16.52;;;0.90;99.90;;;;;;4994561;28;20985;-48
2023/01/30 01:18:52;;;;;;;17.95;16.40;;;1.00;99.90;;;;;;4995715;28;20205;-47
2023/01/30 01:21:18;;;;;;;17.73;16.23;;;1.00;99.90;;;;;;4993006;28;20294;-45
2023/01/30 01:23:56;;;;;;;16.98;15.55;;;1.00;99.90;;;;;;5004517;28;20181;-45
2023/01/30 01:26:21;;;;;;;18.17;16.67;;;1.00;99.90;;;;;;4993011;28;20191;-42
2023/01/30 01:28:47;;;;;;;17.10;15.70;;;1.10;99.90;;;;;;5000047;28;20192;-43
2023/01/30 01:31:15;;;;;;;20.03;18.13;;;1.20;99.90;;;;;;4992580;28;20923;-43
2023/01/30 01:33:40;;;;;;;18.25;16.70;;;1.20;99.90;;;;;;4992995;28;20246;-44
2023/01/30 01:36:06;;;;;;;18.80;17.10;;;1.30;99.90;;;;;;4992661;28;20189;-43
2023/01/30 01:38:32;;;;;;;18.73;17.10;;;1.30;99.90;;;;;;5012324;28;20209;-47
2023/01/30 01:41:01;;;;;;;19.10;17.30;;;1.30;99.90;;;;;;4993538;28;20245;-43
2023/01/30 01:43:34;;;;;;;18.85;17.35;;;1.20;99.90;;;;;;5012529;28;20166;-45
2023/01/30 01:46:07;;;;;;;19.17;17.63;;;1.20;99.90;;;;;;4991918;28;20194;-44
2023/01/30 01:48:46;;;;;;;18.55;16.95;;;1.30;99.90;;;;;;4992892;28;20180;-46
2023/01/30 01:51:35;;;;;;;18.92;17.23;;;1.40;99.90;;;;;;4992649;28;20182;-46
2023/01/30 01:54:21;;;;;;;19.52;17.73;;;1.30;99.90;;;;;;4975187;28;20184;-44
2023/01/30 01:56:48;;;;;;;18.45;16.85;;;1.40;99.90;;;;;;4995903;28;20277;-47
2023/01/30 01:59:26;;;;;;;19.02;17.23;;;1.40;99.90;;;;;;5000402;28;20198;-45
2023/01/30 02:01:56;;;;;;;19.98;18.13;;;1.30;99.90;;;;;;4998094;28;20228;-47
2023/01/30 02:07:08;;;;;;;19.08;17.45;;;1.40;99.90;;;;;;4995552;28;20179;-48
2023/01/30 02:09:34;;;;;;;19.10;17.50;;;1.40;99.90;;;;;;5008832;28;20676;-48
2023/01/30 02:12:03;;;;;;;20.50;18.00;;;1.40;99.90;;;;;;4994671;28;20258;-44
2023/01/30 02:14:32;;;;;;;18.98;17.27;;;1.40;99.90;;;;;;4992340;28;20213;-49
2023/01/30 02:16:57;;;;;;;19.33;17.52;;;1.40;99.90;;;;;;4996992;28;20636;-47
2023/01/30 02:19:37;;;;;;;19.60;17.80;;;1.30;99.90;;;;;;4997225;28;20233;-45
2023/01/30 02:22:08;;;;;;;18.45;16.85;;;1.30;99.90;;;;;;5002399;28;20189;-47
2023/01/30 02:25:03;;;;;;;20.30;18.45;;;1.30;99.90;;;;;;4973455;28;20181;-43
2023/01/30 02:27:57;;;;;;;19.10;17.40;;;1.20;99.90;;;;;;4994923;28;20192;-46
2023/01/30 02:30:45;;;;;;;19.58;17.95;;;1.30;99.90;;;;;;4991551;28;20211;-49
2023/01/30 02:33:40;;;;;;;19.10;17.50;;;1.40;99.90;;;;;;4994326;28;20193;-48
2023/01/30 02:36:27;;;;;;;21.60;19.55;;;1.30;99.90;;;;;;4993705;28;20197;-45
2023/01/30 02:39:17;;;;;;;19.92;18.08;;;1.30;99.90;;;;;;5001609;28;20185;-44
2023/01/30 02:41:57;;;;;;;19.77;18.05;;;1.20;99.90;;;;;;5002037;28;20430;-46
2023/01/30 02:44:41;;;;;;;18.85;17.25;;;1.20;99.90;;;;;;4991849;28;20173;-47
2023/01/30 02:47:15;;;;;;;19.70;18.00;;;1.20;99.90;;;;;;4997120;28;20179;-44
2023/01/30 02:50:12;;;;;;;18.90;17.20;;;1.20;99.90;;;;;;4994586;28;20186;-47
2023/01/30 02:52:39;;;;;;;18.63;16.85;;;1.10;99.90;;;;;;4993885;28;20577;-47
2023/01/30 02:55:38;;;;;;;19.10;17.45;;;1.10;99.90;;;;;;5009817;28;20605;-46
2023/01/30 02:58:04;;;;;;;18.30;16.60;;;1.20;99.90;;;;;;4972546;28;20198;-45
2023/01/30 03:00:51;;;;;;;18.40;16.80;;;1.30;99.90;;;;;;5003016;28;20222;-46
2023/01/30 03:03:32;;;;;;;17.75;16.05;;;1.40;99.90;;;;;;4995155;28;20205;-45
2023/01/30 03:06:25;;;;;;;18.33;16.73;;;1.60;99.90;;;;;;5008367;28;20184;-47
2023/01/30 03:09:06;;;;;;;18.80;17.15;;;1.70;99.90;;;;;;4991274;28;20202;-47
2023/01/30 03:11:52;;;;;;;17.80;16.30;;;1.70;99.90;;;;;;4991807;28;20186;-45
2023/01/30 03:14:25;;;;;;;18.48;16.77;;;1.90;99.90;;;;;;4990836;28;20594;-51
2023/01/30 03:16:53;;;;;;;17.83;16.27;;;1.90;99.90;;;;;;4991308;28;20197;-48
2023/01/30 03:19:20;;;;;;;18.23;16.73;;;2.00;99.90;;;;;;4997567;28;20195;-45
2023/01/30 03:21:45;;;;;;;18.65;17.02;;;2.00;99.90;;;;;;5008533;28;20304;-46
2023/01/30 03:24:12;;;;;;;18.47;16.80;;;2.10;99.90;;;;;;4991163;28;20277;-48
2023/01/30 03:26:47;;;;;;;18.63;17.00;;;2.00;99.90;;;;;;5001946;28;20429;-46
2023/01/30 03:29:14;;;;;;;18.17;16.58;;;2.10;99.90;;;;;;5010609;28;20707;-45
2023/01/30 03:31:39;;;;;;;18.20;16.60;;;2.10;99.90;;;;;;4999757;28;20183;-45
2023/01/30 03:34:05;;;;;;;18.57;16.97;;;2.10;99.90;;;;;;5005366;28;20189;-48
2023/01/30 03:36:31;;;;;;;19.00;17.30;;;2.20;99.90;;;;;;4990315;28;20269;-43
2023/01/30 03:38:56;;;;;;;17.77;16.37;;;2.20;99.90;;;;;;4993218;28;20534;-45
2023/01/30 03:41:22;;;;;;;17.87;16.30;;;2.40;99.90;;;;;;5004428;28;20230;-44
2023/01/30 03:43:47;;;;;;;18.47;16.77;;;2.40;99.90;;;;;;4990622;28;20229;-47
2023/01/30 03:46:13;;;;;;;18.20;16.40;;;2.40;99.90;;;;;;5000839;28;20202;-50
2023/01/30 03:48:39;;;;;;;17.83;16.30;;;2.40;99.90;;;;;;4990553;28;20166;-45
2023/01/30 03:51:04;;;;;;;18.00;16.37;;;2.30;99.90;;;;;;4990531;28;20683;-48
2023/01/30 03:53:30;;;;;;;18.73;17.13;;;2.20;99.90;;;;;;4981289;28;20221;-50
2023/01/30 03:55:55;;;;;;;18.50;16.87;;;2.20;99.90;;;;;;4995284;28;20593;-47
2023/01/30 03:58:21;;;;;;;17.50;16.10;;;2.20;99.90;;;;;;4997758;28;20226;-47
2023/01/30 04:00:47;;;;;;;17.30;15.77;;;2.20;99.90;;;;;;4994662;28;20218;-47
2023/01/30 04:03:14;;;;;;;17.07;15.67;;;2.10;99.90;;;;;;4998586;28;20962;-44
2023/01/30 04:05:41;;;;;;;17.98;16.35;;;2.10;99.90;;;;;;4992934;28;20807;-48
2023/01/30 04:08:07;;;;;;;16.38;15.07;;;2.00;99.90;;;;;;4982829;28;20186;-44
2023/01/30 04:10:33;;;;;;;17.23;15.83;;;2.00;99.90;;;;;;4990217;28;20187;-49
2023/01/30 04:12:58;;;;;;;16.90;15.60;;;2.00;99.90;;;;;;4989894;28;20198;-50
2023/01/30 04:15:24;;;;;;;16.73;15.37;;;2.10;99.90;;;;;;5007206;28;20217;-45
2023/01/30 04:17:49;;;;;;;17.30;15.70;;;2.10;99.90;;;;;;4995669;28;20206;-47
2023/01/30 04:20:15;;;;;;;16.43;15.23;;;2.20;99.90;;;;;;4989878;28;20313;-44
2023/01/30 04:22:41;;;;;;;16.37;14.97;;;2.30;99.90;;;;;;4995021;28;20191;-48
2023/01/30 04:25:07;;;;;;;15.90;14.60;;;2.30;99.90;;;;;;4996297;28;20468;-45
2023/01/30 04:27:33;;;;;;;16.27;14.95;;;2.40;99.90;;;;;;4993456;28;20258;-47
2023/01/30 04:29:58;;;;;;;16.60;15.30;;;2.40;99.90;;;;;;4995495;28;20269;-45
2023/01/30 04:32:25;;;;;;;17.03;15.63;;;2.40;99.90;;;;;;4991024;28;20186;-48
2023/01/30 04:34:51;;;;;;;16.27;15.07;;;2.60;99.90;;;;;;4998272;28;20187;-47
2023/01/30 04:37:17;;;;;;;17.10;15.70;;;2.70;99.90;;;;;;4997643;28;20649;-51
2023/01/30 04:39:42;;;;;;;16.80;15.50;;;2.80;99.90;;;;;;4990378;28;20202;-45
2023/01/30 04:42:08;;;;;;;16.33;15.03;;;2.90;99.90;;;;;;4990467;28;20268;-50
2023/01/30 04:44:33;;;;;;;17.40;15.70;;;2.90;99.90;;;;;;5005892;28;20559;-49
2023/01/30 04:46:59;;;;;;;15.90;14.60;;;3.00;99.90;;;;;;4994281;28;20194;-47
2023/01/30 04:49:25;;;;;;;16.17;14.87;;;3.00;99.90;;;;;;5006068;28;20248;-47
2023/01/30 04:51:50;;;;;;;16.33;15.00;;;3.10;99.90;;;;;;4997582;28;20186;-45
2023/01/30 04:54:16;;;;;;;15.87;14.53;;;3.20;99.90;;;;;;4997197;28;20233;-45
2023/01/30 04:56:41;;;;;;;15.43;14.03;;;3.30;99.90;;;;;;4998681;28;20729;-48
2023/01/30 04:59:07;;;;;;;16.10;14.70;;;3.30;99.90;;;;;;5002652;28;21523;-44
2023/01/30 05:01:35;;;;;;;16.00;14.60;;;3.40;99.90;;;;;;4996780;28;20249;-49
2023/01/30 05:04:02;;;;;;;16.98;15.55;;;3.40;99.90;;;;;;5007436;28;20188;-45
2023/01/30 05:06:28;;;;;;;22.80;20.65;;;3.50;99.90;;;;;;5001642;28;20187;-45
2023/01/30 05:08:55;;;;;;;16.83;15.43;;;3.60;99.90;;;;;;4993388;28;20655;-47
2023/01/30 05:11:21;;;;;;;15.90;14.63;;;3.60;99.90;;;;;;4995709;28;20434;-47
2023/01/30 05:13:47;;;;;;;16.48;15.15;;;3.60;99.90;;;;;;4999202;28;20318;-48
2023/01/30 05:16:14;;;;;;;15.50;14.25;;;3.70;99.90;;;;;;4997975;28;20188;-44
2023/01/30 05:18:40;;;;;;;16.02;14.80;;;3.70;99.90;;;;;;4997752;28;20184;-50
2023/01/30 05:21:12;;;;;;;17.03;15.73;;;3.70;99.90;;;;;;5000980;28;20725;-47
2023/01/30 05:23:37;;;;;;;15.82;14.52;;;3.80;99.90;;;;;;4994775;28;20254;-50
2023/01/30 05:26:03;;;;;;;16.40;15.07;;;3.80;99.90;;;;;;4993509;28;20568;-48
2023/01/30 05:28:29;;;;;;;17.17;15.73;;;3.80;99.90;;;;;;4993049;28;20183;-47
2023/01/30 05:31:02;;;;;;;16.27;14.90;;;3.80;99.90;;;;;;4997783;28;20622;-48
2023/01/30 05:33:28;;;;;;;16.23;14.82;;;3.90;99.90;;;;;;5011989;28;20795;-45
2023/01/30 05:35:53;;;;;;;16.33;15.03;;;3.90;99.90;;;;;;5012694;28;20183;-43
2023/01/30 05:38:20;;;;;;;19.53;18.10;;;4.00;99.90;;;;;;5009556;28;20183;-47
2023/01/30 05:40:46;;;;;;;17.65;16.05;;;3.90;99.90;;;;;;4995592;28;20229;-49
2023/01/30 05:43:11;;;;;;;16.37;15.00;;;3.90;99.90;;;;;;4997411;28;20181;-47
2023/01/30 05:45:37;;;;;;;17.60;16.20;;;3.90;99.90;;;;;;5000791;28;20668;-44
2023/01/30 05:48:03;;;;;;;16.03;14.57;;;3.80;99.90;;;;;;5005441;28;20181;-43
2023/01/30 05:50:29;;;;;;;17.17;15.67;;;3.90;99.90;;;;;;4992869;28;20421;-48
2023/01/30 05:52:55;;;;;;;16.67;15.27;;;3.90;99.90;;;;;;4992677;28;20289;-46
2023/01/30 05:55:20;;;;;;;16.33;15.07;;;4.00;99.90;;;;;;4992753;28;20287;-47
2023/01/30 05:57:46;;;;;;;17.50;15.90;;;3.90;99.90;;;;;;4994933;28;20192;-43
2023/01/30 06:00:12;;;;;;;16.97;15.67;;;3.90;99.90;;;;;;5007412;28;20246;-42
2023/01/30 06:02:37;;;;;;;16.63;15.23;;;4.10;99.90;;;;;;4998400;28;20195;-43
2023/01/30 06:05:03;;;;;;;16.50;15.20;;;4.10;99.90;;;;;;5012016;28;20553;-44
2023/01/30 06:07:29;;;;;;;21.63;16.10;;;4.10;99.90;;;;;;5011872;28;20176;-45
2023/01/30 06:09:55;;;;;;;16.00;14.70;;;4.10;99.90;;;;;;5012030;28;20416;-46
2023/01/30 06:12:20;;;;;;;14.90;13.50;;;4.10;99.90;;;;;;5011790;28;20191;-46
2023/01/30 06:14:46;;;;;;;16.70;15.20;;;4.10;99.90;;;;;;5011760;28;20182;-43
2023/01/30 06:17:11;;;;;;;16.30;15.00;;;4.10;99.90;;;;;;5006561;28;20276;-48
2023/01/30 06:19:37;;;;;;;17.60;16.10;;;4.20;99.90;;;;;;4992661;28;20185;-43
2023/01/30 06:22:02;;;;;;;16.60;15.10;;;4.10;99.90;;;;;;4992883;28;20616;-44
2023/01/30 06:24:28;;;;;;;19.77;18.07;;;4.20;99.90;;;;;;4992500;28;20181;-43
2023/01/30 06:26:54;;;;;;;17.40;15.90;;;4.20;99.90;;;;;;4991852;28;20182;-45
2023/01/30 06:29:19;;;;;;;16.93;15.53;;;4.10;99.90;;;;;;4992393;28;20191;-43
2023/01/30 06:31:46;;;;;;;15.83;14.53;;;4.20;99.90;;;;;;5002736;28;20192;-49
2023/01/30 06:34:11;;;;;;;16.45;15.15;;;4.20;99.90;;;;;;5011176;28;20193;-46
2023/01/30 06:36:37;;;;;;;16.30;14.90;;;4.30;99.90;;;;;;5011232;28;20194;-44
2023/01/30 06:39:03;;;;;;;15.63;14.43;;;4.30;99.90;;;;;;5002308;28;20190;-43
2023/01/30 06:41:28;;;;;;;17.00;15.60;;;4.30;99.90;;;;;;4991631;28;20587;-45
2023/01/30 06:43:54;;;;;;;16.07;14.77;;;4.30;99.90;;;;;;4990375;28;20184;-45
2023/01/30 06:46:20;;;;;;;14.80;13.63;;;4.30;99.90;;;;;;4995325;28;20205;-45
2023/01/30 06:48:46;;;;;;;15.10;14.00;;;4.20;99.90;;;;;;5000077;28;20521;-42
2023/01/30 06:51:12;;;;;;;17.03;15.57;;;4.20;99.90;;;;;;5001799;28;20440;-48
2023/01/30 06:53:37;;;;;;;16.40;15.10;;;4.20;99.90;;;;;;4994238;28;20244;-46
2023/01/30 06:56:03;;;;;;;16.07;14.87;;;4.30;99.90;;;;;;4992222;28;20189;-44
2023/01/30 06:58:29;;;;;;;16.40;15.10;;;4.20;99.90;;;;;;5005213;28;20225;-44
2023/01/30 07:00:54;;;;;;;16.73;15.53;;;4.10;99.90;;;;;;4993726;28;20216;-45
2023/01/30 07:03:20;;;;;;;17.97;16.57;;;4.20;99.90;;;;;;4996989;28;20183;-47
2023/01/30 07:05:46;;;;;;;18.43;17.03;;;4.10;99.90;;;;;;4991318;28;20193;-49
2023/01/30 07:08:13;;;;;;;19.10;17.60;;;4.10;99.90;;;;;;5000295;28;20694;-47
2023/01/30 07:10:40;;;;;;;18.98;17.48;;;4.10;99.90;;;;;;4990604;28;20188;-44
2023/01/30 07:13:05;;;;;;;18.40;17.00;;;4.00;99.90;;;;;;4996111;28;20538;-44
2023/01/30 07:15:31;;;;;;;20.10;18.40;;;4.00;99.90;;;;;;4990856;28;20194;-43
2023/01/30 07:17:57;;;;;;;20.60;19.00;;;3.90;99.90;;;;;;4991020;28;20475;-44
2023/01/30 07:20:23;;;;;;;18.83;17.50;;;3.80;99.90;;;;;;5000937;28;20454;-42
2023/01/30 07:22:53;;;;;;;20.53;18.93;;;3.80;99.90;;;;;;5010443;28;20191;-44
2023/01/30 07:25:20;;;;;;;20.45;18.85;;;3.70;99.90;;;;;;5000366;28;20562;-43
2023/01/30 07:27:55;;;;;;;20.63;18.98;;;3.60;99.90;;;;;;4992556;28;20517;-42
2023/01/30 07:30:21;;;;;;;20.55;18.95;;;3.60;99.90;;;;;;4990234;28;20643;-44
2023/01/30 07:32:51;;;;;;;20.30;18.43;;;3.60;99.90;;;;;;4990584;28;20179;-42
2023/01/30 07:35:17;;;;;;;20.25;18.65;;;3.60;99.90;;;;;;4991395;28;20282;-42
2023/01/30 07:37:45;;;;;;;19.50;18.10;;;3.70;99.90;;;;;;4990569;28;20261;-45
2023/01/30 07:40:11;;;;;;;20.10;18.48;;;3.70;99.90;;;;;;4990857;28;20512;-46
2023/01/30 07:42:37;;;;;;;18.92;17.52;;;3.60;99.90;;;;;;4998970;28;20288;-44
2023/01/30 07:45:03;;;;;;;18.70;17.33;;;3.70;99.90;;;;;;4990343;28;20712;-45
2023/01/30 07:47:29;;;;;;;18.50;17.20;;;3.80;99.90;;;;;;4991048;28;20187;-47
2023/01/30 07:49:55;;;;;;;18.58;17.38;;;3.80;99.90;;;;;;4990731;28;20234;-48
2023/01/30 07:52:21;;;;;;;19.90;18.50;;;3.90;99.90;;;;;;5003147;28;20182;-44
2023/01/30 07:54:46;;;;;;;17.57;16.43;;;3.90;99.90;;;;;;5004205;28;20183;-46
2023/01/30 07:57:12;;;;;;;18.90;17.57;;;4.00;99.90;;;;;;4992083;28;20603;-49
2023/01/30 07:59:37;;;;;;;16.73;15.63;;;4.00;99.90;;;;;;5017175;28;20255;-49
2023/01/30 08:02:03;;;;;;;17.60;16.40;;;4.10;99.90;;;;;;5029617;28;20217;-48
2023/01/30 08:04:28;;;;;;;17.13;15.93;;;4.10;99.90;;;;;;5021566;28;20173;-46
2023/01/30 08:06:54;;;;;;;15.47;14.47;;;4.20;99.90;;;;;;5000520;28;20854;-45
2023/01/30 08:09:20;;;;;;;16.37;15.27;;;4.30;99.90;;;;;;4989864;28;20181;-44
2023/01/30 08:11:45;;;;;;;15.83;14.73;;;4.40;99.90;;;;;;4994024;28;20264;-51
2023/01/30 08:14:11;;;;;;;18.10;16.80;;;4.30;99.90;;;;;;5002813;28;20196;-45
2023/01/30 08:16:37;;;;;;;17.30;16.00;;;4.30;99.90;;;;;;4998271;28;20180;-49
2023/01/30 08:19:04;;;;;;;21.90;19.90;;;4.20;99.90;;;;;;4994025;28;20188;-44
2023/01/30 08:21:30;;;;;;;16.50;15.30;;;4.20;99.90;;;;;;4989822;28;20205;-46
2023/01/30 08:23:55;;;;;;;15.47;14.27;;;4.20;99.90;;;;;;4989903;28;20174;-45
2023/01/30 08:26:21;;;;;;;15.70;14.60;;;4.30;99.90;;;;;;4989604;28;20302;-48
2023/01/30 08:28:47;;;;;;;16.87;15.47;;;4.30;99.90;;;;;;4991248;28;20182;-48
2023/01/30 08:31:14;;;;;;;17.47;16.27;;;4.30;99.90;;;;;;4992835;28;20468;-48
2023/01/30 08:33:39;;;;;;;17.70;16.50;;;4.20;99.90;;;;;;4989975;28;20183;-44
2023/01/30 08:36:05;;;;;;;17.40;16.20;;;4.20;99.90;;;;;;4989863;28;20181;-45
2023/01/30 08:38:31;;;;;;;17.67;16.48;;;4.10;99.90;;;;;;4990039;28;20195;-47
2023/01/30 08:40:58;;;;;;;17.97;16.77;;;4.00;99.90;;;;;;4989755;28;20275;-46
2023/01/30 08:43:23;;;;;;;18.08;16.85;;;4.00;99.90;;;;;;4989952;28;20152;-51
2023/01/30 08:45:53;;;;;;;16.80;15.70;;;4.00;99.90;;;;;;4989849;28;20692;-44
2023/01/30 08:48:19;;;;;;;16.80;15.70;;;4.00;99.90;;;;;;4989745;28;20165;-44
2023/01/30 08:50:44;;;;;;;15.77;14.80;;;4.10;99.90;;;;;;4989252;28;20564;-42
2023/01/30 08:53:10;;;;;;;15.97;14.80;;;4.10;99.90;;;;;;4989788;28;20207;-43
2023/01/30 08:55:35;;;;;;;16.27;15.27;;;4.20;99.90;;;;;;4997734;28;20663;-43
2023/01/30 08:58:01;;;;;;;15.57;14.67;;;4.20;99.90;;;;;;5001044;28;20720;-47
2023/01/30 09:00:27;;;;;;;14.70;13.90;;;4.30;99.90;;;;;;4998083;28;20250;-43
2023/01/30 09:02:54;;;;;;;14.82;14.02;;;4.40;99.90;;;;;;5000090;28;20179;-47
2023/01/30 09:05:20;;;;;;;16.20;15.20;;;4.60;99.90;;;;;;4990409;28;20664;-45
2023/01/30 09:07:46;;;;;;;14.50;13.60;;;4.80;99.90;;;;;;4990555;28;20202;-44
2023/01/30 09:10:11;;;;;;;14.70;13.80;;;4.80;99.90;;;;;;4989714;28;20263;-44
2023/01/30 09:12:37;;;;;;;14.17;13.27;;;4.80;99.90;;;;;;4991940;28;20189;-43
2023/01/30 09:15:03;;;;;;;14.00;13.20;;;4.80;99.90;;;;;;4989513;28;20187;-43
2023/01/30 09:17:29;;;;;;;13.95;13.15;;;4.80;99.90;;;;;;5005136;28;20724;-42
2023/01/30 09:19:54;;;;;;;14.30;13.40;;;4.80;99.90;;;;;;4996060;28;20316;-43
2023/01/30 09:22:20;;;;;;;13.27;12.57;;;4.80;99.90;;;;;;5008660;28;20191;-43
2023/01/30 09:24:45;;;;;;;14.00;13.03;;;4.80;99.90;;;;;;4989304;28;20183;-48
2023/01/30 09:27:11;;;;;;;12.63;11.83;;;4.80;99.90;;;;;;4987945;28;20279;-46
2023/01/30 09:29:37;;;;;;;12.67;11.87;;;4.80;99.90;;;;;;4990616;28;20191;-43
2023/01/30 09:32:02;;;;;;;12.27;11.47;;;4.90;99.90;;;;;;4990228;28;20200;-43
2023/01/30 09:34:28;;;;;;;12.30;11.60;;;5.00;99.90;;;;;;4992686;28;20645;-45
2023/01/30 09:36:55;;;;;;;13.63;12.73;;;5.00;99.90;;;;;;4992883;28;20218;-46
2023/01/30 09:39:21;;;;;;;12.98;12.18;;;5.10;99.90;;;;;;4993942;28;20227;-45
2023/01/30 09:42:04;;;;;;;12.03;11.33;;;5.10;99.90;;;;;;4992340;28;20265;-44
2023/01/30 09:44:57;;;;;;;11.88;11.23;;;5.10;99.90;;;;;;4992989;28;20246;-47
2023/01/30 09:47:41;;;;;;;12.45;11.70;;;5.20;99.90;;;;;;4993002;28;20602;-45
2023/01/30 09:50:16;;;;;;;12.23;11.52;;;5.20;99.90;;;;;;4992474;28;20197;-48
2023/01/30 09:53:01;;;;;;;12.07;11.38;;;5.20;99.90;;;;;;5008864;28;20222;-48
2023/01/30 09:55:29;;;;;;;12.20;11.50;;;5.20;99.90;;;;;;4959831;28;20227;-47
2023/01/30 09:57:58;;;;;;;12.38;11.68;;;5.10;99.90;;;;;;4998423;28;20198;-45
2023/01/30 10:00:41;;;;;;;12.80;12.00;;;5.10;99.90;;;;;;5006026;28;20198;-48
2023/01/30 10:03:09;;;;;;;12.45;11.65;;;5.10;99.90;;;;;;4999230;28;20174;-45
2023/01/30 10:06:06;;;;;;;13.00;12.15;;;5.30;99.90;;;;;;5011801;28;20550;-45
2023/01/30 10:08:57;;;;;;;12.18;11.38;;;5.70;99.90;;;;;;5011709;28;20928;-47
2023/01/30 10:11:28;;;;;;;11.02;10.32;;;6.30;99.90;;;;;;5011289;28;20582;-48
2023/01/30 10:14:16;;;;;;;11.83;11.20;;;7.10;99.90;;;;;;5011752;28;20186;-49
2023/01/30 10:17:19;;;;;;;12.13;11.50;;;7.90;99.90;;;;;;5003476;28;20434;-51
2023/01/30 10:20:10;;;;;;;11.90;11.20;;;7.90;99.90;;;;;;5000275;28;20432;-46
2023/01/30 10:22:54;;;;;;;12.07;11.40;;;7.60;99.90;;;;;;5011447;28;20435;-45
2023/01/30 10:25:57;;;;;;;11.53;10.93;;;7.40;99.90;;;;;;4998964;28;20419;-43
2023/01/30 10:28:45;;;;;;;11.47;10.97;;;7.30;99.90;;;;;;5000802;28;20410;-44
2023/01/30 10:31:14;;;;;;;11.35;10.77;;;7.40;99.90;;;;;;5011294;28;20418;-47
2023/01/30 10:34:11;;;;;;;11.52;10.93;;;7.30;99.90;;;;;;5011148;28;20634;-45
2023/01/30 10:36:51;;;;;;;11.63;11.03;;;7.10;99.90;;;;;;4985842;28;20222;-45
2023/01/30 10:39:45;;;;;;;11.37;10.77;;;6.90;99.90;;;;;;4994081;28;20500;-45
2023/01/30 10:42:35;;;;;;;10.90;10.30;;;6.60;99.90;;;;;;4983993;28;20498;-46
2023/01/30 10:45:16;;;;;;;11.60;11.00;;;6.40;99.90;;;;;;4965373;28;20282;-45
2023/01/30 10:48:01;;;;;;;11.25;10.65;;;6.50;99.90;;;;;;4992121;28;20199;-47
2023/01/30 10:50:57;;;;;;;10.90;10.40;;;6.40;99.90;;;;;;4993658;28;20634;-46
2023/01/30 10:53:43;;;;;;;9.85;9.35;;;6.40;99.90;;;;;;5000590;28;20179;-44
2023/01/30 10:56:32;;;;;;;10.32;9.77;;;6.40;99.90;;;;;;4992879;28;20243;-45
2023/01/30 10:59:24;;;;;;;10.15;9.60;;;6.30;99.90;;;;;;5006964;28;20653;-45
2023/01/30 11:02:15;;;;;;;10.95;10.35;;;6.20;99.90;;;;;;4986723;28;20223;-43
2023/01/30 11:04:55;;;;;;;10.55;10.05;;;6.00;99.90;;;;;;5010677;28;20278;-45
2023/01/30 11:07:20;;;;;;;10.82;10.32;;;5.80;99.90;;;;;;4979752;28;20199;-47
2023/01/30 11:09:47;;;;;;;9.80;9.30;;;5.80;99.90;;;;;;4992039;28;20214;-43
2023/01/30 11:12:13;;;;;;;9.80;9.30;;;5.80;99.90;;;;;;4991840;28;20176;-46
2023/01/30 11:15:00;;;;;;;10.75;10.15;;;5.80;99.90;;;;;;4990944;28;20210;-44
2023/01/30 11:17:35;;;;;;;9.55;9.05;;;5.80;99.90;;;;;;5006289;28;20218;-46
2023/01/30 11:20:16;;;;;;;10.02;9.43;;;5.80;99.90;;;;;;4996338;28;20184;-44
2023/01/30 11:23:27;;;;;;;9.48;9.07;;;6.00;99.90;;;;;;4990854;28;20192;-47
2023/01/30 11:25:56;;;;;;;10.88;10.38;;;6.80;99.90;;;;;;4988038;28;20686;-42
2023/01/30 11:28:25;;;;;;;9.95;9.45;;;6.80;99.90;;;;;;4979730;28;20242;-45
2023/01/30 11:30:57;;;;;;;10.65;10.05;;;6.80;99.90;;;;;;4969594;28;20243;-44
2023/01/30 11:33:30;;;;;;;10.70;10.05;;;6.30;99.90;;;;;;4970080;28;20574;-44
2023/01/30 11:35:59;;;;;;;10.70;10.20;;;6.00;99.90;;;;;;4968751;28;20208;-47
2023/01/30 11:38:37;;;;;;;11.10;10.50;;;5.90;99.90;;;;;;4968626;28;20265;-46
2023/01/30 11:41:08;;;;;;;10.52;10.02;;;5.70;99.90;;;;;;4968471;28;20249;-46
2023/01/30 11:43:38;;;;;;;11.10;10.50;;;5.60;99.90;;;;;;4968545;28;20522;-46
2023/01/30 11:46:06;;;;;;;11.80;11.10;;;5.50;99.90;;;;;;4968331;28;20190;-43
2023/01/30 11:48:34;;;;;;;10.20;9.70;;;5.40;99.90;;;;;;4967955;28;20191;-42
2023/01/30 11:51:04;;;;;;;11.05;10.45;;;5.50;99.90;;;;;;4968193;28;20288;-47
2023/01/30 11:53:39;;;;;;;10.90;10.30;;;5.50;99.90;;;;;;4968141;28;20214;-47
2023/01/30 11:56:28;;;;;;;10.65;10.05;;;5.40;99.90;;;;;;4974106;28;20210;-45
2023/01/30 11:59:20;;;;;;;10.68;10.07;;;5.30;99.90;;;;;;5003379;28;20189;-47
2023/01/30 12:01:46;;;;;;;11.20;10.63;;;5.30;99.90;;;;;;5011560;28;20213;-45
2023/01/30 12:04:13;;;;;;;11.03;10.50;;;5.20;99.90;;;;;;5029340;28;20196;-46
2023/01/30 12:06:41;;;;;;;10.30;9.77;;;5.20;99.90;;;;;;5029491;28;20636;-48
2023/01/30 12:09:27;;;;;;;11.52;10.93;;;5.20;99.90;;;;;;5029235;28;20180;-45
2023/01/30 12:11:52;;;;;;;11.43;10.82;;;5.20;99.90;;;;;;5009674;28;20672;-47
2023/01/30 12:14:33;;;;;;;11.60;10.97;;;5.20;99.90;;;;;;4995981;28;20187;-49
2023/01/30 12:17:01;;;;;;;11.63;10.95;;;5.30;99.90;;;;;;4991490;28;20309;-45
2023/01/30 12:19:35;;;;;;;11.50;10.90;;;5.40;99.90;;;;;;4988638;28;20197;-43
2023/01/30 12:22:19;;;;;;;11.05;10.25;;;5.40;99.90;;;;;;4990172;28;20285;-43
2023/01/30 12:24:48;;;;;;;12.13;11.43;;;5.40;99.90;;;;;;4990233;28;20597;-43
2023/01/30 12:27:27;;;;;;;11.60;10.80;;;5.40;99.90;;;;;;4990353;28;20207;-46
2023/01/30 12:30:20;;;;;;;11.10;10.50;;;5.50;99.90;;;;;;4990160;28;20174;-46
2023/01/30 12:32:45;;;;;;;10.80;10.10;;;5.70;99.90;;;;;;4990110;28;20176;-45
2023/01/30 12:35:23;;;;;;;11.70;11.00;;;6.00;99.90;;;;;;4990140;28;20176;-47
2023/01/30 12:38:14;;;;;;;11.53;10.80;;;6.60;99.90;;;;;;4988675;28;20175;-44
2023/01/30 12:40:54;;;;;;;11.50;10.90;;;7.50;99.90;;;;;;4989835;28;20823;-53
2023/01/30 12:43:36;;;;;;;10.60;10.00;;;8.30;99.90;;;;;;4989920;28;21296;-49
2023/01/30 12:46:24;;;;;;;11.60;11.00;;;8.20;99.90;;;;;;4989900;28;20395;-47
2023/01/30 12:48:58;;;;;;;11.37;10.67;;;7.80;99.90;;;;;;5000600;28;20441;-47
2023/01/30 12:51:48;;;;;;;10.50;9.90;;;7.50;99.90;;;;;;5009620;28;20866;-50
2023/01/30 12:54:20;;;;;;;11.53;10.90;;;7.50;99.90;;;;;;4991872;28;20517;-50
2023/01/30 12:57:19;;;;;;;11.70;10.90;;;7.90;99.90;;;;;;5009378;28;20421;-48
2023/01/30 13:00:23;;;;;;;11.70;11.00;;;8.50;99.90;;;;;;5022998;28;20417;-45
2023/01/30 13:03:01;;;;;;;10.33;9.73;;;8.00;99.90;;;;;;5028130;28;20449;-46
2023/01/30 13:05:36;;;;;;;10.63;10.13;;;7.50;99.90;;;;;;5029095;28;20409;-46